Time;durP1;ratioP1;P1;durP2;ratioP2;P2;SDS_P1;SDS_P2;PMS_P1;PMS_P2;Temp;Humidity;BMP_temperature;BMP_pressure;BME280_temperature;BME280_humidity;BME280_pressure;Samples;Min_cycle;Max_cycle;Signal;HPM_P1;HPM_P2
2022/04/26 03:38:20;;;;;;;;;;;;;;;7.87;100.00;101664.97;2613729;31;20077;-53
2022/04/26 03:40:48;;;;;;;;;;;;;;;7.83;100.00;101666.13;2613571;36;20014;-52
2022/04/26 03:43:16;;;;;;;;;;;;;;;7.89;100.00;101661.25;2612758;36;20077;-49
2022/04/26 03:45:44;;;;;;;;;;;;;;;7.99;100.00;101666.84;2611618;36;20077;-54
2022/04/26 03:48:14;;;;;;;;;;;;;;;7.96;100.00;101675.09;2610387;36;20082;-50
2022/04/26 03:50:43;;;;;;;;;;;;;;;7.91;100.00;101669.19;2613755;36;20391;-50
2022/04/26 03:53:11;;;;;;;;;;;;;;;7.87;100.00;101676.56;2613794;36;20420;-51
2022/04/26 03:55:39;;;;;;;;;;;;;;;7.86;100.00;101673.97;2612818;36;20072;-50
2022/04/26 03:58:07;;;;;;;;;;;;;;;7.88;100.00;101678.28;2613410;31;19950;-53
2022/04/26 04:00:35;;;;;;;;;;;;;;;7.87;100.00;101675.69;2613065;36;20081;-56
2022/04/26 04:03:03;;;;;;;;;;;;;;;7.93;100.00;101677.13;2613579;36;20136;-51
2022/04/26 04:05:33;;;;;;;;;;;;;;;7.96;100.00;101680.47;2613063;36;20042;-53
2022/04/26 04:08:02;;;;;;;;;;;;;;;7.99;100.00;101679.41;2613693;36;19981;-56
2022/04/26 04:10:30;;;;;;;;;;;;;;;7.96;100.00;101683.13;2612207;36;20338;-48
2022/04/26 04:12:58;;;;;;;;;;;;;;;8.00;100.00;101679.31;2613157;36;20041;-50
2022/04/26 04:15:26;;;;;;;;;;;;;;;7.82;100.00;101683.19;2611828;36;19958;-51
2022/04/26 04:17:54;;;;;;;;;;;;;;;7.84;100.00;101698.19;2612743;36;19970;-51
2022/04/26 04:20:20;;;;;;;;;;;;;;;7.79;100.00;101692.28;2612950;36;20065;-54
2022/04/26 04:22:53;;;;;;;;;;;;;;;7.77;100.00;101701.38;2612591;36;20545;-50
2022/04/26 04:25:21;;;;;;;;;;;;;;;7.80;100.00;101699.38;2611181;36;19947;-52
2022/04/26 04:27:49;;;;;;;;;;;;;;;7.88;100.00;101706.91;2613742;36;19957;-50
2022/04/26 04:30:17;;;;;;;;;;;;;;;7.85;100.00;101699.94;2613318;36;20411;-55
2022/04/26 04:32:45;;;;;;;;;;;;;;;7.91;100.00;101693.31;2614009;36;20434;-50
2022/04/26 04:35:13;;;;;;;;;;;;;;;7.88;100.00;101709.59;2613130;36;20798;-51
2022/04/26 04:37:41;;;;;;;;;;;;;;;7.79;100.00;101699.44;2612409;36;19958;-51
2022/04/26 04:40:12;;;;;;;;;;;;;;;7.85;100.00;101709.78;2612235;36;20053;-51
2022/04/26 04:42:40;;;;;;;;;;;;;;;7.83;100.00;101706.34;2611972;36;20081;-55
2022/04/26 04:45:09;;;;;;;;;;;;;;;7.86;100.00;101709.69;2610535;36;20586;-52
2022/04/26 04:47:40;;;;;;;;;;;;;;;7.84;100.00;101711.59;2612500;31;19951;-48
2022/04/26 04:50:09;;;;;;;;;;;;;;;7.90;100.00;101713.03;2612681;36;19981;-51
2022/04/26 04:52:37;;;;;;;;;;;;;;;7.88;100.00;101714.97;2613954;36;20029;-54
2022/04/26 04:55:06;;;;;;;;;;;;;;;7.81;100.00;101727.03;2611526;36;19950;-54
2022/04/26 04:57:36;;;;;;;;;;;;;;;7.76;100.00;101723.75;2613336;36;20074;-53
2022/04/26 05:00:05;;;;;;;;;;;;;;;7.80;100.00;101733.31;2613120;36;19973;-51
2022/04/26 05:02:33;;;;;;;;;;;;;;;7.92;100.00;101737.94;2613326;36;20328;-51
2022/04/26 05:05:01;;;;;;;;;;;;;;;7.93;100.00;101739.63;2614935;31;20449;-50
2022/04/26 05:07:29;;;;;;;;;;;;;;;7.91;100.00;101738.88;2613828;36;20070;-53
2022/04/26 05:09:58;;;;;;;;;;;;;;;7.86;100.00;101740.97;2613333;36;19946;-49
2022/04/26 05:12:26;;;;;;;;;;;;;;;7.87;100.00;101745.38;2612175;36;19950;-53
2022/04/26 05:14:56;;;;;;;;;;;;;;;7.97;100.00;101745.69;2612868;36;20034;-49
2022/04/26 05:17:24;;;;;;;;;;;;;;;7.99;100.00;101751.78;2609535;36;20491;-51
2022/04/26 05:19:52;;;;;;;;;;;;;;;8.03;100.00;101759.53;2612871;36;20058;-54
2022/04/26 05:22:20;;;;;;;;;;;;;;;8.03;100.00;101761.38;2611955;36;19969;-52
2022/04/26 05:24:56;;;;;;;;;;;;;;;8.00;100.00;101751.69;2611717;36;20068;-50
2022/04/26 05:27:24;;;;;;;;;;;;;;;8.18;100.00;101754.16;2612701;36;19951;-50
2022/04/26 05:29:52;;;;;;;;;;;;;;;8.05;100.00;101752.28;2612165;36;21857;-49
2022/04/26 05:32:24;;;;;;;;;;;;;;;8.14;100.00;101763.34;2611141;36;20033;-50
2022/04/26 05:34:57;;;;;;;;;;;;;;;8.06;100.00;101767.38;2612696;36;20069;-51
2022/04/26 05:37:25;;;;;;;;;;;;;;;8.03;100.00;101772.09;2612266;36;20089;-53
2022/04/26 05:39:53;;;;;;;;;;;;;;;8.06;100.00;101769.22;2612058;36;20475;-49
2022/04/26 05:42:21;;;;;;;;;;;;;;;8.10;100.00;101775.22;2614039;31;20438;-48
2022/04/26 05:44:52;;;;;;;;;;;;;;;8.00;100.00;101783.00;2613391;54;20004;-60
2022/04/26 05:47:20;;;;;;;;;;;;;;;8.01;100.00;101782.91;2610687;36;19975;-49
2022/04/26 05:49:52;;;;;;;;;;;;;;;8.03;100.00;101774.78;2611676;36;20046;-55
2022/04/26 05:52:20;;;;;;;;;;;;;;;8.13;100.00;101777.75;2611178;31;20004;-54
2022/04/26 05:54:48;;;;;;;;;;;;;;;8.03;100.00;101783.66;2609289;36;20064;-49
2022/04/26 05:57:16;;;;;;;;;;;;;;;7.95;100.00;101783.31;2612613;36;20038;-49
2022/04/26 05:59:44;;;;;;;;;;;;;;;7.94;100.00;101784.25;2611336;36;20030;-50
2022/04/26 06:02:12;;;;;;;;;;;;;;;8.09;100.00;101779.75;2610803;31;20076;-52
2022/04/26 06:04:40;;;;;;;;;;;;;;;8.24;100.00;101786.81;2612261;31;20030;-54
2022/04/26 06:07:11;;;;;;;;;;;;;;;8.17;100.00;101789.97;2611138;36;20037;-48
2022/04/26 06:09:40;;;;;;;;;;;;;;;8.09;100.00;101785.09;2612317;36;20042;-57
2022/04/26 06:12:09;;;;;;;;;;;;;;;8.03;100.00;101789.03;2611888;36;19958;-50
2022/04/26 06:14:37;;;;;;;;;;;;;;;8.06;100.00;101802.25;2611937;36;20033;-51
2022/04/26 06:17:05;;;;;;;;;;;;;;;8.20;100.00;101795.13;2611352;36;20038;-55
2022/04/26 06:19:33;;;;;;;;;;;;;;;8.15;100.00;101797.25;2609838;36;19980;-54
2022/04/26 06:22:01;;;;;;;;;;;;;;;8.22;100.00;101796.78;2611300;36;20033;-52
2022/04/26 06:24:32;;;;;;;;;;;;;;;8.20;100.00;101811.22;2611574;36;20512;-57
2022/04/26 06:27:00;;;;;;;;;;;;;;;8.29;100.00;101810.66;2613463;31;20476;-50
2022/04/26 06:29:28;;;;;;;;;;;;;;;8.29;100.00;101810.66;2612111;36;20129;-52
2022/04/26 06:31:56;;;;;;;;;;;;;;;8.33;100.00;101806.84;2591843;36;19946;-53
2022/04/26 06:34:24;;;;;;;;;;;;;;;8.20;100.00;101819.28;2602264;31;19980;-53
2022/04/26 06:36:52;;;;;;;;;;;;;;;8.15;100.00;101816.03;2609791;36;19951;-54
2022/04/26 06:39:20;;;;;;;;;;;;;;;8.31;100.00;101816.78;2611959;36;19973;-50
2022/04/26 06:41:51;;;;;;;;;;;;;;;8.30;100.00;101817.72;2612462;31;20038;-57
2022/04/26 06:44:19;;;;;;;;;;;;;;;8.46;100.00;101824.84;2611405;36;20057;-52
2022/04/26 06:46:47;;;;;;;;;;;;;;;8.39;100.00;101816.28;2608487;36;20460;-56
2022/04/26 06:49:15;;;;;;;;;;;;;;;8.27;100.00;101820.63;2611765;36;20038;-50
2022/04/26 06:51:44;;;;;;;;;;;;;;;8.29;100.00;101816.03;2612555;36;20026;-50
2022/04/26 06:54:12;;;;;;;;;;;;;;;8.35;100.00;101821.00;2611688;36;19954;-48
2022/04/26 06:56:40;;;;;;;;;;;;;;;8.64;100.00;101815.59;2610582;36;19962;-52
2022/04/26 06:59:11;;;;;;;;;;;;;;;8.85;100.00;101812.47;2612676;36;20331;-54
2022/04/26 07:01:39;;;;;;;;;;;;;;;8.85;100.00;101823.19;2610644;36;20077;-52
2022/04/26 07:04:07;;;;;;;;;;;;;;;8.84;100.00;101816.13;2609482;36;20081;-52
2022/04/26 07:06:35;;;;;;;;;;;;;;;8.83;100.00;101825.13;2610231;36;20034;-52
2022/04/26 07:09:03;;;;;;;;;;;;;;;8.70;100.00;101835.81;2611664;36;20049;-51
2022/04/26 07:11:32;;;;;;;;;;;;;;;8.88;100.00;101833.75;2611640;36;19947;-53
2022/04/26 07:14:00;;;;;;;;;;;;;;;9.07;100.00;101828.03;2611918;36;19946;-52
2022/04/26 07:16:30;;;;;;;;;;;;;;;8.71;100.00;101833.00;2610063;36;20050;-53
2022/04/26 07:18:58;;;;;;;;;;;;;;;9.04;100.00;101833.56;2611133;36;20336;-55
2022/04/26 07:21:26;;;;;;;;;;;;;;;9.01;100.00;101837.34;2610263;36;20073;-50
2022/04/26 07:23:54;;;;;;;;;;;;;;;8.89;100.00;101836.34;2611516;36;20069;-54
2022/04/26 07:26:22;;;;;;;;;;;;;;;8.97;100.00;101834.97;2611308;31;20593;-52
2022/04/26 07:28:50;;;;;;;;;;;;;;;9.10;100.00;101833.19;2611375;36;20030;-51
2022/04/26 07:31:19;;;;;;;;;;;;;;;9.03;100.00;101838.09;2611093;36;20662;-54
2022/04/26 07:36:45;;;;;;;;;;;;;;;9.49;100.00;101835.97;2609290;36;19953;-51
2022/04/26 07:39:14;;;;;;;;;;;;;;;9.43;100.00;101840.78;2604646;31;19969;-50
2022/04/26 07:41:42;;;;;;;;;;;;;;;9.27;100.00;101840.09;2611185;36;20431;-50
2022/04/26 07:44:10;;;;;;;;;;;;;;;9.38;100.00;101831.31;2612229;36;19973;-48
2022/04/26 07:46:39;;;;;;;;;;;;;;;9.44;100.00;101842.50;2612588;36;20042;-57
2022/04/26 07:49:10;;;;;;;;;;;;;;;9.59;100.00;101840.59;2612282;36;19946;-53
2022/04/26 07:51:38;;;;;;;;;;;;;;;9.76;100.00;101836.75;2612609;36;20030;-57
2022/04/26 07:54:07;;;;;;;;;;;;;;;9.70;100.00;101850.63;2612451;36;20053;-50
2022/04/26 07:56:35;;;;;;;;;;;;;;;9.88;100.00;101850.28;2612383;36;19981;-51
2022/04/26 07:59:04;;;;;;;;;;;;;;;9.98;100.00;101849.56;2612812;36;20062;-55
2022/04/26 08:01:32;;;;;;;;;;;;;;;10.17;100.00;101838.34;2611955;36;19954;-52
2022/04/26 08:04:00;;;;;;;;;;;;;;;10.30;100.00;101848.22;2612448;36;19984;-51
2022/04/26 08:06:30;;;;;;;;;;;;;;;10.35;100.00;101846.13;2612225;36;19954;-54
2022/04/26 08:08:58;;;;;;;;;;;;;;;10.45;100.00;101846.28;2612360;36;20094;-50
2022/04/26 08:11:28;;;;;;;;;;;;;;;10.70;100.00;101848.06;2612746;36;20037;-51
2022/04/26 08:13:56;;;;;;;;;;;;;;;10.89;100.00;101852.94;2612643;36;19958;-53
2022/04/26 08:16:24;;;;;;;;;;;;;;;10.58;100.00;101854.34;2611785;36;20298;-53
2022/04/26 08:18:52;;;;;;;;;;;;;;;10.75;100.00;101862.06;2610053;31;19950;-51
2022/04/26 08:21:20;;;;;;;;;;;;;;;10.84;100.00;101855.13;2611025;36;19950;-50
2022/04/26 08:29:15;;;;;;;;;;;;;;;10.89;100.00;101873.63;2612829;36;19953;-52
2022/04/26 08:31:43;;;;;;;;;;;;;;;11.09;100.00;101875.72;2612055;36;20078;-53
2022/04/26 08:34:11;;;;;;;;;;;;;;;10.92;100.00;101876.09;2612503;36;19984;-52
2022/04/26 08:36:39;;;;;;;;;;;;;;;10.65;100.00;101878.00;2612328;36;19977;-54
2022/04/26 08:39:09;;;;;;;;;;;;;;;10.34;100.00;101879.38;2604606;36;20528;-53
2022/04/26 08:41:37;;;;;;;;;;;;;;;10.68;100.00;101882.31;2610283;36;19954;-53
2022/04/26 08:44:10;;;;;;;;;;;;;;;10.77;100.00;101883.47;2610606;36;19958;-56
2022/04/26 08:52:02;;;;;;;;;;;;;;;10.49;100.00;101889.03;2611941;36;19953;-54
2022/04/26 08:54:34;;;;;;;;;;;;;;;10.37;100.00;101897.97;2610220;36;19946;-55
2022/04/26 08:57:02;;;;;;;;;;;;;;;10.57;100.00;101898.38;2611270;36;20441;-52
2022/04/26 08:59:31;;;;;;;;;;;;;;;10.89;100.00;101900.56;2611267;31;20049;-50
2022/04/26 09:02:14;;;;;;;;;;;;;;;10.82;100.00;101901.03;2610382;36;19958;-54
2022/04/26 09:04:42;;;;;;;;;;;;;;;10.90;100.00;101913.06;2611895;36;20074;-50
2022/04/26 09:07:11;;;;;;;;;;;;;;;10.98;100.00;101914.22;2612367;36;20042;-49
2022/04/26 09:09:43;;;;;;;;;;;;;;;10.80;100.00;101912.88;2612418;36;19950;-52
2022/04/26 09:12:12;;;;;;;;;;;;;;;10.93;100.00;101904.75;2611028;36;19996;-51
2022/04/26 09:14:47;;;;;;;;;;;;;;;10.81;100.00;101910.06;2612247;36;20416;-50
2022/04/26 09:17:16;;;;;;;;;;;;;;;10.81;100.00;101915.44;2611160;36;20250;-49
2022/04/26 09:19:46;;;;;;;;;;;;;;;11.04;100.00;101911.09;2612231;36;19950;-55
2022/04/26 09:22:18;;;;;;;;;;;;;;;10.93;100.00;101904.75;2612234;36;20663;-50
2022/04/26 09:24:59;;;;;;;;;;;;;;;10.86;100.00;101904.34;2612105;36;19950;-52
2022/04/26 09:27:29;;;;;;;;;;;;;;;10.74;100.00;101914.19;2609657;36;19965;-51
2022/04/26 09:29:57;;;;;;;;;;;;;;;10.71;100.00;101910.84;2611367;36;20408;-52
2022/04/26 09:32:25;;;;;;;;;;;;;;;10.45;100.00;101908.19;2610930;36;20490;-57
2022/04/26 09:34:54;;;;;;;;;;;;;;;10.30;100.00;101907.44;2611202;36;20000;-50
2022/04/26 09:37:22;;;;;;;;;;;;;;;10.51;100.00;101910.44;2612902;36;20401;-55
2022/04/26 09:40:08;;;;;;;;;;;;;;;10.55;100.00;101913.78;2611566;36;19946;-54
2022/04/26 09:42:36;;;;;;;;;;;;;;;11.23;100.00;101920.47;2611710;36;20359;-55
2022/04/26 09:45:08;;;;;;;;;;;;;;;11.55;100.00;101909.97;2612356;36;20542;-51
2022/04/26 09:47:40;;;;;;;;;;;;;;;11.95;100.00;101913.31;2606313;36;19951;-50
2022/04/26 09:50:09;;;;;;;;;;;;;;;12.45;100.00;101919.25;2612555;36;19946;-55
2022/04/26 09:52:37;;;;;;;;;;;;;;;12.43;100.00;101915.84;2605636;36;19954;-56
2022/04/26 09:55:09;;;;;;;;;;;;;;;12.78;100.00;101915.69;2612112;36;20333;-51
2022/04/26 09:57:37;;;;;;;;;;;;;;;12.82;100.00;101921.69;2610806;31;20046;-55
2022/04/26 10:00:06;;;;;;;;;;;;;;;12.64;100.00;101910.53;2610130;36;19948;-51
2022/04/26 10:02:35;;;;;;;;;;;;;;;12.89;100.00;101917.50;2611433;36;20645;-50
2022/04/26 10:05:05;;;;;;;;;;;;;;;13.22;100.00;101918.44;2610969;36;19946;-50
2022/04/26 10:07:36;;;;;;;;;;;;;;;12.82;100.00;101908.19;2611940;36;19955;-52
2022/04/26 10:10:09;;;;;;;;;;;;;;;12.57;100.00;101907.50;2611260;36;20047;-53
2022/04/26 10:12:38;;;;;;;;;;;;;;;12.40;100.00;101913.38;2611833;36;19958;-51
2022/04/26 10:15:07;;;;;;;;;;;;;;;12.25;100.00;101921.72;2612110;36;20073;-51
2022/04/26 10:17:35;;;;;;;;;;;;;;;12.15;100.00;101920.72;2611162;36;20017;-56
2022/04/26 10:20:04;;;;;;;;;;;;;;;12.37;100.00;101921.72;2612283;36;19972;-50
2022/04/26 10:22:57;;;;;;;;;;;;;;;12.43;100.00;101923.94;2612390;31;19950;-54
2022/04/26 10:25:30;;;;;;;;;;;;;;;12.68;100.00;101930.06;2612291;36;20411;-62
2022/04/26 10:28:13;;;;;;;;;;;;;;;12.80;100.00;101920.97;2611929;36;19947;-55
2022/04/26 10:30:50;;;;;;;;;;;;;;;13.15;100.00;101928.03;2609839;36;19947;-49
2022/04/26 10:33:33;;;;;;;;;;;;;;;13.22;100.00;101929.25;2627837;36;19973;-61
2022/04/26 10:36:29;;;;;;;;;;;;;;;13.14;96.86;101937.97;2611699;36;19993;-51
2022/04/26 10:39:12;;;;;;;;;;;;;;;13.46;100.00;101925.50;2612744;31;19958;-58
2022/04/26 10:41:43;;;;;;;;;;;;;;;14.32;100.00;101928.09;2613442;31;20417;-54
2022/04/26 10:44:26;;;;;;;;;;;;;;;14.16;97.44;101918.63;2612068;31;20440;-55
2022/04/26 10:47:09;;;;;;;;;;;;;;;14.43;92.26;101919.00;2609937;31;20335;-54
2022/04/26 10:49:44;;;;;;;;;;;;;;;13.91;91.06;101927.97;2611071;31;20042;-56
2022/04/26 10:52:27;;;;;;;;;;;;;;;14.24;97.16;101931.47;2612223;36;19954;-52
2022/04/26 10:55:07;;;;;;;;;;;;;;;14.24;100.00;101926.06;2605982;36;19946;-54
2022/04/26 10:57:39;;;;;;;;;;;;;;;13.78;98.73;101928.19;2611876;36;20516;-53
2022/04/26 11:00:09;;;;;;;;;;;;;;;13.79;100.00;101939.88;2612208;36;20439;-54
2022/04/26 11:02:39;;;;;;;;;;;;;;;13.27;98.45;101940.53;2604053;36;19965;-62
2022/04/26 11:05:09;;;;;;;;;;;;;;;13.69;100.00;101934.38;2611368;36;19947;-56
2022/04/26 11:07:36;;;;;;;;;;;;;;;14.52;91.38;101935.31;2608509;36;19969;-54
2022/04/26 11:10:05;;;;;;;;;;;;;;;14.04;90.39;101946.75;2610166;36;20042;-55
2022/04/26 11:12:34;;;;;;;;;;;;;;;14.15;89.10;101943.13;2611067;36;20044;-63
2022/04/26 11:15:05;;;;;;;;;;;;;;;14.41;89.74;101942.69;2612468;31;20516;-61
2022/04/26 11:17:34;;;;;;;;;;;;;;;13.94;87.91;101940.41;2612442;36;20079;-53
2022/04/26 11:20:03;;;;;;;;;;;;;;;13.73;89.10;101948.50;2614113;36;20357;-50
2022/04/26 11:22:31;;;;;;;;;;;;;;;13.77;99.03;101949.97;2613002;36;19950;-56
2022/04/26 11:30:38;;;;;;;;;;;;;;;13.61;86.62;101951.25;2611954;36;20330;-55
2022/04/26 11:33:07;;;;;;;;;;;;;;;14.34;90.03;101956.75;2610371;36;20331;-54
2022/04/26 11:35:36;;;;;;;;;;;;;;;14.90;86.86;101938.38;2611544;36;20439;-56
2022/04/26 11:38:06;;;;;;;;;;;;;;;15.44;78.77;101952.44;2611706;31;19969;-57
2022/04/26 11:40:36;;;;;;;;;;;;;;;16.01;71.93;101955.31;2612725;36;19954;-52
2022/04/26 11:43:08;;;;;;;;;;;;;;;15.13;71.71;101959.81;2611103;31;20439;-61
2022/04/26 11:45:39;;;;;;;;;;;;;;;14.05;81.30;101963.84;2612659;36;20086;-52
2022/04/26 11:48:10;;;;;;;;;;;;;;;14.00;80.09;101970.53;2611979;36;20072;-54
2022/04/26 11:50:39;;;;;;;;;;;;;;;14.39;89.52;101960.94;2612667;31;19954;-54
2022/04/26 11:53:08;;;;;;;;;;;;;;;15.09;82.80;101961.09;2612965;31;19966;-62
2022/04/26 11:55:37;;;;;;;;;;;;;;;15.24;69.21;101963.25;2612561;36;20519;-58
2022/04/26 11:58:16;;;;;;;;;;;;;;;14.80;68.15;101970.00;2612684;36;19954;-54
2022/04/26 12:01:03;;;;;;;;;;;;;;;13.81;73.39;101983.91;2611639;36;19957;-54
2022/04/26 12:03:32;;;;;;;;;;;;;;;14.43;86.48;101978.59;2612966;36;19958;-51
2022/04/26 12:06:01;;;;;;;;;;;;;;;15.44;70.80;101973.28;2605896;36;19946;-54
2022/04/26 12:08:29;;;;;;;;;;;;;;;15.77;63.97;101970.16;2613097;31;20483;-53
2022/04/26 12:11:14;;;;;;;;;;;;;;;16.02;67.18;101976.06;2612777;36;20112;-52
2022/04/26 12:13:42;;;;;;;;;;;;;;;15.48;65.28;101978.28;2613442;36;20414;-56
2022/04/26 12:16:20;;;;;;;;;;;;;;;15.80;64.61;101973.63;2611532;36;20034;-55
2022/04/26 12:18:55;;;;;;;;;;;;;;;15.50;63.73;101979.03;2611983;31;19981;-56
2022/04/26 12:21:23;;;;;;;;;;;;;;;15.37;74.38;101984.72;2613441;31;20525;-60
2022/04/26 12:24:10;;;;;;;;;;;;;;;15.79;71.67;101977.34;2631186;36;19981;-57
2022/04/26 12:26:38;;;;;;;;;;;;;;;14.94;78.31;101983.16;2613366;36;19980;-54
2022/04/26 12:29:14;;;;;;;;;;;;;;;15.23;77.47;101982.38;2611237;36;19984;-59
2022/04/26 12:31:48;;;;;;;;;;;;;;;15.60;83.04;101968.16;2610951;36;20005;-55
2022/04/26 12:34:20;;;;;;;;;;;;;;;15.42;77.68;101976.16;2613724;36;20398;-54
2022/04/26 12:36:56;;;;;;;;;;;;;;;15.38;81.49;101985.56;2613375;36;20073;-56
2022/04/26 12:39:25;;;;;;;;;;;;;;;14.06;85.28;101987.22;2613002;36;19950;-61
2022/04/26 12:41:55;;;;;;;;;;;;;;;14.26;96.47;101989.06;2612821;36;20062;-53
2022/04/26 12:44:23;;;;;;;;;;;;;;;15.10;84.48;101981.78;2612601;31;19954;-57
2022/04/26 12:52:32;;;;;;;;;;;;;;;16.23;69.47;101975.88;2612024;36;20375;-53
2022/04/26 12:55:00;;;;;;;;;;;;;;;15.36;67.84;101985.69;2611472;36;20450;-56
2022/04/26 12:57:28;;;;;;;;;;;;;;;15.37;68.20;101990.13;2611964;36;20514;-62
2022/04/26 12:59:56;;;;;;;;;;;;;;;15.22;65.54;101984.25;2611077;36;20253;-53
2022/04/26 13:02:26;;;;;;;;;;;;;;;14.20;82.40;102000.44;2611530;36;20058;-53
2022/04/26 13:04:54;;;;;;;;;;;;;;;14.51;76.34;101986.94;2606326;36;20101;-55
2022/04/26 13:07:22;;;;;;;;;;;;;;;14.85;82.96;101997.53;2604748;36;20424;-56
2022/04/26 13:09:50;;;;;;;;;;;;;;;15.86;73.81;101990.19;2612456;36;20473;-59
2022/04/26 13:12:18;;;;;;;;;;;;;;;15.52;73.00;101993.31;2611635;36;20524;-55
2022/04/26 13:14:46;;;;;;;;;;;;;;;15.62;68.51;101990.59;2612563;36;20065;-55
2022/04/26 13:17:20;;;;;;;;;;;;;;;15.49;70.38;101990.00;2611842;36;19954;-54
2022/04/26 13:19:50;;;;;;;;;;;;;;;15.94;67.72;101995.78;2610490;36;19958;-58
2022/04/26 13:22:19;;;;;;;;;;;;;;;16.44;66.76;101989.28;2610639;31;20420;-59
2022/04/26 13:24:47;;;;;;;;;;;;;;;16.38;64.27;101983.56;2611707;31;19954;-57
2022/04/26 13:27:16;;;;;;;;;;;;;;;15.87;65.75;101983.78;2612058;36;20527;-54
2022/04/26 13:29:44;;;;;;;;;;;;;;;14.82;71.53;101987.81;2611307;36;21502;-54
2022/04/26 13:32:12;;;;;;;;;;;;;;;14.70;78.81;101994.34;2611485;36;19985;-60
2022/04/26 13:34:40;;;;;;;;;;;;;;;14.19;81.95;101993.28;2610990;31;20049;-66
2022/04/26 13:37:10;;;;;;;;;;;;;;;14.55;79.65;101989.22;2610800;36;20065;-54
2022/04/26 13:39:50;;;;;;;;;;;;;;;14.45;83.40;101987.47;2611662;36;19977;-54
2022/04/26 13:42:19;;;;;;;;;;;;;;;14.83;78.52;101991.41;2609198;31;19973;-52
2022/04/26 13:44:49;;;;;;;;;;;;;;;15.03;74.95;101979.63;2610258;36;20431;-62
2022/04/26 13:47:17;;;;;;;;;;;;;;;14.17;86.68;101988.00;2611352;36;20042;-56
2022/04/26 13:49:47;;;;;;;;;;;;;;;14.74;81.33;101989.50;2610952;31;19989;-57
2022/04/26 13:52:20;;;;;;;;;;;;;;;14.50;75.30;101990.63;2610138;36;20312;-52
2022/04/26 13:54:48;;;;;;;;;;;;;;;14.47;76.25;101991.78;2611614;36;19954;-62
2022/04/26 13:57:16;;;;;;;;;;;;;;;15.02;71.96;101996.88;2613059;31;20469;-62
2022/04/26 13:59:47;;;;;;;;;;;;;;;15.79;65.00;101994.50;2611588;36;19954;-54
2022/04/26 14:02:15;;;;;;;;;;;;;;;15.32;62.64;101983.41;2609855;36;19957;-55
2022/04/26 14:04:47;;;;;;;;;;;;;;;15.54;70.48;101987.72;2610474;36;19950;-53
2022/04/26 14:07:18;;;;;;;;;;;;;;;15.49;61.10;101987.28;2605946;31;20435;-61
2022/04/26 14:09:46;;;;;;;;;;;;;;;14.51;63.68;101982.34;2611556;36;19959;-52
2022/04/26 14:12:18;;;;;;;;;;;;;;;15.22;66.27;101975.25;2610883;36;19968;-53
2022/04/26 14:22:50;;;;;;;;;;;;;;;16.24;56.66;101976.75;2610615;36;19950;-56
2022/04/26 14:25:18;;;;;;;;;;;;;;;15.84;57.23;101975.06;2611613;36;20046;-60
2022/04/26 14:27:49;;;;;;;;;;;;;;;16.57;56.88;101980.78;2611872;36;20063;-54
2022/04/26 14:30:18;;;;;;;;;;;;;;;15.99;56.82;101979.06;2611078;36;19946;-57
2022/04/26 14:32:48;;;;;;;;;;;;;;;16.11;54.65;101967.03;2609672;31;19954;-51
2022/04/26 14:35:17;;;;;;;;;;;;;;;15.88;53.91;101971.06;2610367;36;19973;-60
2022/04/26 14:37:45;;;;;;;;;;;;;;;16.07;53.15;101971.03;2610974;36;20041;-60
2022/04/26 14:40:16;;;;;;;;;;;;;;;15.75;53.39;101976.72;2610658;36;20021;-54
2022/04/26 14:42:46;;;;;;;;;;;;;;;15.58;53.36;101978.31;2610197;31;19950;-54
2022/04/26 14:45:14;;;;;;;;;;;;;;;15.58;53.54;101970.16;2609393;36;19958;-54
2022/04/26 14:47:42;;;;;;;;;;;;;;;16.11;52.69;101967.03;2609805;36;19953;-59
2022/04/26 14:50:11;;;;;;;;;;;;;;;16.70;51.00;101972.31;2610968;36;20431;-63
2022/04/26 14:52:39;;;;;;;;;;;;;;;17.25;50.77;101979.63;2610765;36;19950;-55
2022/04/26 14:55:11;;;;;;;;;;;;;;;15.98;50.76;101982.75;2612442;36;20046;-57
2022/04/26 14:57:41;;;;;;;;;;;;;;;16.06;49.45;101980.19;2611878;31;19946;-55
2022/04/26 15:00:10;;;;;;;;;;;;;;;16.37;49.48;101976.41;2611707;36;20030;-62
2022/04/26 15:02:41;;;;;;;;;;;;;;;16.50;49.67;101970.66;2611952;36;19981;-54
2022/04/26 15:05:11;;;;;;;;;;;;;;;14.89;52.48;101982.72;2612048;36;20030;-56
2022/04/26 15:10:20;;;;;;;;;;;;;;;14.78;52.46;101988.22;2610905;36;20454;-64
2022/04/26 15:18:14;;;;;;;;;;;;;;;16.16;52.97;101977.44;2612964;31;19955;-62
2022/04/26 15:20:50;;;;;;;;;;;;;;;16.15;50.39;101992.06;2613359;36;20077;-55
2022/04/26 15:23:18;;;;;;;;;;;;;;;15.85;52.02;102002.06;2605289;36;19951;-54
2022/04/26 15:25:50;;;;;;;;;;;;;;;15.72;51.35;101994.19;2613444;36;19962;-53
2022/04/26 15:28:21;;;;;;;;;;;;;;;15.89;51.54;102006.22;2612304;36;19996;-62
2022/04/26 15:30:50;;;;;;;;;;;;;;;16.01;52.99;101996.06;2612820;36;20551;-55
2022/04/26 15:33:18;;;;;;;;;;;;;;;16.17;55.10;101998.19;2613439;36;20856;-55
2022/04/26 15:35:46;;;;;;;;;;;;;;;15.81;53.23;102002.50;2613317;36;20085;-55
2022/04/26 15:38:14;;;;;;;;;;;;;;;16.22;53.60;102000.47;2612868;36;20332;-55
2022/04/26 15:40:44;;;;;;;;;;;;;;;16.39;53.61;102004.31;2610688;36;19968;-62
2022/04/26 15:43:13;;;;;;;;;;;;;;;15.85;54.65;101999.34;2610757;36;20371;-55
2022/04/26 15:45:45;;;;;;;;;;;;;;;16.18;51.75;101999.03;2609830;36;20394;-50
2022/04/26 15:48:13;;;;;;;;;;;;;;;15.52;55.34;102006.88;2609553;31;20479;-55
2022/04/26 15:50:41;;;;;;;;;;;;;;;16.27;52.83;102004.47;2610872;36;19947;-54
2022/04/26 15:53:09;;;;;;;;;;;;;;;15.94;53.67;102008.50;2609769;36;20470;-62
2022/04/26 15:55:38;;;;;;;;;;;;;;;16.52;53.57;101996.69;2610986;36;20053;-58
2022/04/26 15:58:06;;;;;;;;;;;;;;;16.01;54.90;102004.19;2612250;31;20352;-55
2022/04/26 16:00:34;;;;;;;;;;;;;;;15.28;56.23;102012.66;2612559;36;20000;-52
2022/04/26 16:03:05;;;;;;;;;;;;;;;15.37;55.58;102017.28;2611918;36;20331;-56
2022/04/26 16:05:35;;;;;;;;;;;;;;;15.51;55.39;102010.56;2612600;36;20525;-61
2022/04/26 16:08:03;;;;;;;;;;;;;;;15.30;57.01;102007.97;2608295;36;20061;-55
2022/04/26 16:21:16;;;;;;;;;;;;;;;14.77;55.80;102024.47;2612499;36;20450;-60
2022/04/26 16:23:45;;;;;;;;;;;;;;;15.00;55.87;102020.59;2606274;36;20037;-56
2022/04/26 16:26:13;;;;;;;;;;;;;;;15.22;55.50;102029.47;2604315;36;19950;-53
2022/04/26 16:28:41;;;;;;;;;;;;;;;14.48;54.62;102025.13;2612257;36;19951;-52
2022/04/26 16:31:09;;;;;;;;;;;;;;;14.86;56.50;102024.50;2612586;36;20754;-55
2022/04/26 16:33:40;;;;;;;;;;;;;;;15.16;55.66;102027.34;2611730;36;20964;-63
2022/04/26 16:36:11;;;;;;;;;;;;;;;13.91;60.86;102033.53;2612902;31;20041;-57
2022/04/26 16:38:39;;;;;;;;;;;;;;;13.79;64.48;102035.41;2612719;36;20097;-56
2022/04/26 16:41:07;;;;;;;;;;;;;;;13.74;66.18;102031.41;2615346;36;19947;-52
2022/04/26 16:43:36;;;;;;;;;;;;;;;13.49;72.59;102036.13;2608731;36;21608;-56
2022/04/26 16:46:05;;;;;;;;;;;;;;;13.38;73.63;102038.84;2611454;36;19962;-61
2022/04/26 16:48:33;;;;;;;;;;;;;;;12.82;83.04;102043.25;2612843;31;19947;-54
2022/04/26 16:51:03;;;;;;;;;;;;;;;12.34;82.41;102038.91;2613635;36;20038;-53
2022/04/26 16:53:32;;;;;;;;;;;;;;;12.02;89.81;102042.22;2614206;31;20368;-52
2022/04/26 16:56:00;;;;;;;;;;;;;;;12.24;91.11;102048.69;2613410;36;19951;-53
2022/04/26 16:58:28;;;;;;;;;;;;;;;12.56;87.67;102051.59;2613660;31;19953;-62
2022/04/26 17:00:56;;;;;;;;;;;;;;;12.42;97.65;102055.34;2613354;36;20520;-50
2022/04/26 17:03:24;;;;;;;;;;;;;;;12.35;90.99;102050.56;2614122;36;20102;-50
2022/04/26 17:05:53;;;;;;;;;;;;;;;12.46;86.07;102045.19;2613741;36;20033;-57
2022/04/26 17:08:24;;;;;;;;;;;;;;;12.06;92.71;102053.66;2613819;31;20045;-51
2022/04/26 17:11:41;;;;;;;;;;;;;;;12.21;91.91;102047.09;2612939;36;19954;-60
2022/04/26 17:13:42;;;;;;;;;;;;;;;11.82;96.26;102053.63;2613955;36;19951;-53
2022/04/26 17:16:10;;;;;;;;;;;;;;;11.88;99.89;102059.44;2612458;36;19951;-52
2022/04/26 17:18:40;;;;;;;;;;;;;;;12.02;96.28;102060.25;2613720;36;19977;-60